Time;durP1;ratioP1;P1;durP2;ratioP2;P2;SDS_P1;SDS_P2;PMS_P1;PMS_P2;Temp;Humidity;BMP_temperature;BMP_pressure;BME280_temperature;BME280_humidity;BME280_pressure;Samples;Min_cycle;Max_cycle;Signal;HPM_P1;HPM_P2
2021/03/20 00:00:45;;;;;;;15.63;7.82;;;;;;;;;;4089601;35;20058;-83
2021/03/20 00:03:15;;;;;;;11.43;8.07;;;;;;;;;;4091362;35;20120;-83
2021/03/20 00:05:44;;;;;;;14.18;7.25;;;;;;;;;;4083100;35;20062;-83
2021/03/20 00:08:13;;;;;;;11.35;6.30;;;;;;;;;;4086901;35;20120;-83
2021/03/20 00:10:41;;;;;;;12.07;5.97;;;;;;;;;;4095504;35;20070;-83
2021/03/20 00:13:09;;;;;;;9.45;4.85;;;;;;;;;;4088186;35;20510;-83
2021/03/20 00:15:37;;;;;;;14.13;5.47;;;;;;;;;;4083376;35;20120;-84
2021/03/20 00:18:06;;;;;;;13.55;6.72;;;;;;;;;;4092496;35;20101;-84
2021/03/20 00:20:36;;;;;;;11.65;8.10;;;;;;;;;;4085574;35;20058;-83
2021/03/20 00:23:05;;;;;;;13.88;9.45;;;;;;;;;;4086857;35;20107;-84
2021/03/20 00:25:34;;;;;;;13.07;9.88;;;;;;;;;;4087189;35;20588;-83
2021/03/20 00:28:04;;;;;;;14.38;9.05;;;;;;;;;;4088045;35;20105;-83
2021/03/20 00:30:32;;;;;;;12.55;9.32;;;;;;;;;;4083266;35;20070;-84
2021/03/20 00:33:01;;;;;;;9.57;7.95;;;;;;;;;;4089780;35;20106;-83
2021/03/20 00:35:29;;;;;;;11.98;8.40;;;;;;;;;;4097286;34;20101;-83
2021/03/20 00:37:58;;;;;;;7.82;7.03;;;;;;;;;;4091082;35;20521;-83
2021/03/20 00:40:29;;;;;;;10.48;6.37;;;;;;;;;;4095726;35;20520;-84
2021/03/20 00:42:57;;;;;;;11.48;6.55;;;;;;;;;;4090316;35;20533;-83
2021/03/20 00:45:26;;;;;;;10.70;5.55;;;;;;;;;;4100103;35;20097;-83
2021/03/20 00:47:55;;;;;;;10.13;4.97;;;;;;;;;;4086597;35;20124;-83
2021/03/20 00:50:25;;;;;;;11.05;4.30;;;;;;;;;;4087501;35;20113;-83
2021/03/20 00:52:53;;;;;;;12.68;3.83;;;;;;;;;;4085155;35;20580;-83
2021/03/20 00:55:22;;;;;;;9.65;3.70;;;;;;;;;;4087244;35;20066;-83
2021/03/20 00:57:50;;;;;;;11.77;2.45;;;;;;;;;;4087925;35;20094;-83
2021/03/20 01:00:21;;;;;;;9.45;2.60;;;;;;;;;;4088375;35;20113;-83
2021/03/20 01:02:49;;;;;;;7.50;2.10;;;;;;;;;;4086168;35;20093;-83
2021/03/20 01:05:18;;;;;;;10.15;4.20;;;;;;;;;;4090146;35;20087;-83
2021/03/20 01:07:46;;;;;;;11.40;4.30;;;;;;;;;;4090255;35;20167;-84
2021/03/20 01:10:19;;;;;;;10.77;5.82;;;;;;;;;;4094696;35;20120;-83
2021/03/20 01:12:47;;;;;;;15.60;5.60;;;;;;;;;;4093828;35;20097;-84
2021/03/20 01:15:17;;;;;;;15.10;5.93;;;;;;;;;;4086124;35;20124;-83
2021/03/20 01:17:45;;;;;;;13.20;6.05;;;;;;;;;;4092883;35;20158;-84
2021/03/20 01:20:14;;;;;;;9.60;6.18;;;;;;;;;;4098565;35;20066;-84
2021/03/20 01:22:43;;;;;;;15.50;6.45;;;;;;;;;;4093135;35;20119;-83
2021/03/20 01:25:12;;;;;;;12.07;6.75;;;;;;;;;;4095955;35;20108;-83
2021/03/20 01:27:41;;;;;;;13.62;7.37;;;;;;;;;;4090960;35;20054;-83
2021/03/20 01:30:13;;;;;;;9.63;8.13;;;;;;;;;;4097663;35;20518;-83
2021/03/20 01:32:41;;;;;;;11.85;7.90;;;;;;;;;;4100906;35;20112;-83
2021/03/20 01:35:10;;;;;;;14.87;7.90;;;;;;;;;;4089016;34;20082;-83
2021/03/20 01:37:38;;;;;;;16.75;6.28;;;;;;;;;;4096633;35;20057;-83
2021/03/20 01:40:07;;;;;;;13.88;5.00;;;;;;;;;;4098534;35;20070;-83
2021/03/20 01:42:40;;;;;;;11.00;5.40;;;;;;;;;;4102765;35;20109;-83
2021/03/20 01:45:09;;;;;;;17.10;7.43;;;;;;;;;;4093715;35;20062;-84
2021/03/20 01:47:44;;;;;;;12.63;6.90;;;;;;;;;;4097352;35;20057;-83
2021/03/20 01:50:14;;;;;;;12.70;2.75;;;;;;;;;;4095441;35;20106;-83
2021/03/20 01:52:43;;;;;;;9.23;2.37;;;;;;;;;;4093556;35;20125;-84
2021/03/20 01:55:11;;;;;;;5.72;1.98;;;;;;;;;;4087038;35;20078;-84
2021/03/20 01:57:42;;;;;;;8.95;2.17;;;;;;;;;;4093398;35;20525;-83
2021/03/20 02:00:24;;;;;;;13.45;2.30;;;;;;;;;;4102930;35;20701;-83
2021/03/20 02:02:54;;;;;;;10.88;2.50;;;;;;;;;;4076822;35;20113;-83
2021/03/20 02:05:28;;;;;;;15.70;3.50;;;;;;;;;;4087131;35;20088;-84
2021/03/20 02:07:57;;;;;;;10.82;2.80;;;;;;;;;;4086521;35;20257;-84
2021/03/20 02:10:26;;;;;;;8.85;2.22;;;;;;;;;;4090450;35;20078;-83
2021/03/20 02:12:57;;;;;;;9.95;3.20;;;;;;;;;;4093291;35;20097;-83
2021/03/20 02:15:25;;;;;;;11.25;3.80;;;;;;;;;;4085211;35;20547;-83
2021/03/20 02:18:13;;;;;;;10.00;3.78;;;;;;;;;;4101314;35;20471;-83
2021/03/20 02:20:50;;;;;;;8.68;4.47;;;;;;;;;;4097565;35;20523;-83
2021/03/20 02:23:27;;;;;;;9.73;5.25;;;;;;;;;;4086987;35;20120;-84
2021/03/20 02:26:14;;;;;;;13.30;5.65;;;;;;;;;;4086556;35;20156;-83
2021/03/20 02:28:51;;;;;;;10.57;5.05;;;;;;;;;;4093262;35;20372;-83
2021/03/20 02:31:22;;;;;;;13.35;5.00;;;;;;;;;;4099434;35;20120;-83
2021/03/20 02:34:00;;;;;;;10.05;3.70;;;;;;;;;;4090422;35;20081;-83
2021/03/20 02:36:38;;;;;;;10.75;4.72;;;;;;;;;;4091310;35;20080;-83
2021/03/20 02:39:18;;;;;;;8.57;4.05;;;;;;;;;;4095713;35;20054;-84
2021/03/20 02:41:50;;;;;;;12.18;2.62;;;;;;;;;;4098391;35;20149;-83
2021/03/20 02:44:24;;;;;;;8.20;2.20;;;;;;;;;;4085797;35;20120;-83
2021/03/20 02:46:58;;;;;;;10.15;2.55;;;;;;;;;;4087137;35;20069;-83
2021/03/20 02:49:35;;;;;;;8.73;2.05;;;;;;;;;;4092291;35;20451;-84
2021/03/20 02:52:18;;;;;;;12.52;2.78;;;;;;;;;;4094396;35;20078;-83
2021/03/20 02:54:58;;;;;;;10.45;2.35;;;;;;;;;;4093124;35;20128;-83
2021/03/20 02:57:28;;;;;;;9.88;2.15;;;;;;;;;;4092751;35;20087;-83
2021/03/20 03:00:01;;;;;;;9.10;2.30;;;;;;;;;;4093005;35;20085;-83
2021/03/20 03:02:30;;;;;;;10.50;1.95;;;;;;;;;;4074670;35;20097;-83
2021/03/20 03:05:01;;;;;;;10.15;1.95;;;;;;;;;;4091243;35;20541;-83
2021/03/20 03:07:51;;;;;;;10.23;2.03;;;;;;;;;;4100594;35;20470;-83
2021/03/20 03:10:23;;;;;;;10.80;2.17;;;;;;;;;;4114110;29;20426;-95
2021/03/20 03:13:02;;;;;;;9.90;2.08;;;;;;;;;;4062958;35;20054;-95
2021/03/20 03:15:57;;;;;;;13.27;2.65;;;;;;;;;;4079568;35;20079;-95
2021/03/20 03:18:34;;;;;;;9.75;2.58;;;;;;;;;;4073742;35;20077;-96
2021/03/20 03:21:15;;;;;;;7.55;2.22;;;;;;;;;;4064382;35;20126;-96
2021/03/20 03:23:45;;;;;;;8.60;2.70;;;;;;;;;;4054803;35;20059;-95
2021/03/20 03:26:26;;;;;;;13.68;2.72;;;;;;;;;;4074455;35;20115;-95
2021/03/20 03:28:59;;;;;;;10.93;2.75;;;;;;;;;;4079542;35;20064;-95
2021/03/20 03:31:44;;;;;;;3.87;1.45;;;;;;;;;;4066077;35;20074;-94
2021/03/20 03:37:04;;;;;;;10.25;2.30;;;;;;;;;;4072790;35;20533;-95
2021/03/20 03:39:35;;;;;;;8.32;2.28;;;;;;;;;;4062918;35;20155;-94
2021/03/20 03:42:13;;;;;;;9.23;2.35;;;;;;;;;;4061722;35;20075;-96
2021/03/20 03:44:51;;;;;;;9.82;2.45;;;;;;;;;;4079600;35;20059;-95
2021/03/20 03:47:25;;;;;;;5.22;1.80;;;;;;;;;;4062917;35;20067;-95
2021/03/20 03:50:08;;;;;;;9.15;2.17;;;;;;;;;;4074712;35;20063;-95
2021/03/20 03:52:40;;;;;;;11.93;2.58;;;;;;;;;;4074535;35;20083;-96
2021/03/20 03:55:22;;;;;;;9.38;2.33;;;;;;;;;;4074013;35;20097;-95
2021/03/20 03:58:08;;;;;;;9.63;2.43;;;;;;;;;;4067538;35;20073;-95
2021/03/20 04:00:40;;;;;;;6.45;2.00;;;;;;;;;;4063087;35;20068;-96
2021/03/20 04:03:19;;;;;;;11.38;2.05;;;;;;;;;;4071592;35;20085;-96
2021/03/20 04:05:57;;;;;;;13.77;2.72;;;;;;;;;;4066338;35;20154;-95
2021/03/20 04:08:59;;;;;;;11.45;2.50;;;;;;;;;;4059138;35;20081;-95
2021/03/20 04:11:48;;;;;;;10.52;2.55;;;;;;;;;;4057129;35;20051;-94
2021/03/20 04:14:27;;;;;;;8.90;2.33;;;;;;;;;;4072568;35;20100;-95
2021/03/20 04:17:15;;;;;;;6.30;2.15;;;;;;;;;;4061071;35;20080;-94
2021/03/20 04:20:14;;;;;;;8.48;2.10;;;;;;;;;;4063531;35;20051;-95
2021/03/20 04:22:50;;;;;;;13.32;2.35;;;;;;;;;;4074672;35;20050;-96
2021/03/20 04:25:57;;;;;;;7.57;2.17;;;;;;;;;;4063799;35;20159;-95
2021/03/20 04:28:25;;;;;;;;;;;;;;;;;;4037751;35;20059;-96
2021/03/20 04:31:05;;;;;;;12.70;2.55;;;;;;;;;;4041910;35;20374;-96
2021/03/20 04:34:03;;;;;;;9.98;2.40;;;;;;;;;;4074230;35;20055;-96
2021/03/20 04:36:43;;;;;;;16.15;2.60;;;;;;;;;;4055915;35;20093;-96
2021/03/20 04:39:15;;;;;;;8.95;2.12;;;;;;;;;;4080228;35;20065;-96
2021/03/20 04:41:57;;;;;;;9.50;2.47;;;;;;;;;;4077885;35;20320;-96
2021/03/20 04:44:35;;;;;;;14.55;3.05;;;;;;;;;;4075614;35;20063;-96
2021/03/20 04:47:29;;;;;;;9.65;2.40;;;;;;;;;;4074370;35;20082;-95
2021/03/20 04:50:23;;;;;;;10.77;2.53;;;;;;;;;;4062943;35;20113;-95
2021/03/20 04:53:13;;;;;;;13.60;2.50;;;;;;;;;;4067382;35;20110;-95
2021/03/20 04:55:49;;;;;;;4.87;2.12;;;;;;;;;;4068873;35;20077;-94
2021/03/20 04:58:34;;;;;;;12.63;2.42;;;;;;;;;;4065403;35;20203;-96
2021/03/20 05:01:19;;;;;;;10.15;2.00;;;;;;;;;;4074953;35;20378;-96
2021/03/20 05:04:06;;;;;;;12.32;2.60;;;;;;;;;;4072073;35;20047;-96
2021/03/20 05:06:36;;;;;;;9.23;2.53;;;;;;;;;;4057115;35;20110;-95
2021/03/20 05:09:07;;;;;;;10.38;1.98;;;;;;;;;;4070589;35;20084;-96
2021/03/20 05:11:39;;;;;;;7.57;2.12;;;;;;;;;;4073466;35;20060;-95
2021/03/20 05:14:11;;;;;;;7.78;2.30;;;;;;;;;;4061614;35;20050;-95
2021/03/20 05:19:31;;;;;;;8.73;2.50;;;;;;;;;;4075137;35;20121;-96
2021/03/20 05:22:31;;;;;;;7.82;2.10;;;;;;;;;;4072860;35;20034;-95
2021/03/20 05:25:18;;;;;;;11.73;2.80;;;;;;;;;;4063730;35;20070;-96
2021/03/20 05:28:02;;;;;;;11.95;2.25;;;;;;;;;;4075810;35;20054;-95
2021/03/20 05:30:42;;;;;;;13.15;2.50;;;;;;;;;;4071154;35;20071;-95
2021/03/20 05:33:16;;;;;;;11.20;2.45;;;;;;;;;;4070450;35;20055;-96
2021/03/20 05:36:00;;;;;;;5.93;1.90;;;;;;;;;;4067109;35;20050;-96
2021/03/20 05:38:31;;;;;;;9.45;2.62;;;;;;;;;;4067706;35;20575;-95
2021/03/20 05:41:33;;;;;;;8.70;2.05;;;;;;;;;;4072858;35;20063;-96
2021/03/20 05:44:25;;;;;;;12.65;2.42;;;;;;;;;;4060860;35;20055;-95
2021/03/20 05:47:24;;;;;;;11.18;2.17;;;;;;;;;;4062294;35;20059;-96
2021/03/20 05:50:09;;;;;;;11.07;2.42;;;;;;;;;;4073427;35;20129;-95
2021/03/20 05:53:25;;;;;;;7.32;2.20;;;;;;;;;;4083126;35;20501;-95
2021/03/20 05:56:24;;;;;;;11.32;2.45;;;;;;;;;;4066278;35;20102;-96
2021/03/20 05:59:05;;;;;;;15.50;2.65;;;;;;;;;;4059924;35;20103;-95
2021/03/20 06:02:00;;;;;;;10.40;2.28;;;;;;;;;;4071937;35;20102;-95
2021/03/20 06:05:08;;;;;;;7.65;1.83;;;;;;;;;;4067323;35;20757;-95
2021/03/20 06:08:18;;;;;;;10.50;2.33;;;;;;;;;;4066884;35;20109;-96
2021/03/20 06:11:29;;;;;;;9.40;2.33;;;;;;;;;;4078191;35;20047;-95
2021/03/20 06:17:27;;;;;;;11.20;2.40;;;;;;;;;;4061349;35;20070;-96
2021/03/20 06:20:31;;;;;;;14.82;2.10;;;;;;;;;;4066493;35;20042;-94
2021/03/20 06:23:50;;;;;;;12.77;2.80;;;;;;;;;;4065397;35;20075;-94
2021/03/20 06:26:58;;;;;;;13.43;2.65;;;;;;;;;;4074637;35;20035;-96
2021/03/20 06:29:37;;;;;;;7.00;2.30;;;;;;;;;;4054306;35;20110;-96
2021/03/20 06:32:24;;;;;;;11.07;2.20;;;;;;;;;;4074263;35;20039;-95
2021/03/20 06:34:58;;;;;;;11.77;2.20;;;;;;;;;;4072149;35;20070;-95
2021/03/20 06:37:35;;;;;;;11.50;2.58;;;;;;;;;;4061217;35;20087;-96
2021/03/20 06:40:15;;;;;;;7.62;2.20;;;;;;;;;;4063591;35;20838;-96
2021/03/20 06:42:54;;;;;;;12.45;2.67;;;;;;;;;;4062037;35;20149;-96
2021/03/20 06:45:38;;;;;;;12.35;2.53;;;;;;;;;;4057727;35;20129;-94
2021/03/20 06:48:33;;;;;;;6.97;1.90;;;;;;;;;;4055179;35;20073;-96
2021/03/20 06:51:39;;;;;;;10.30;2.30;;;;;;;;;;4062863;35;20606;-94
2021/03/20 06:54:14;;;;;;;10.98;1.90;;;;;;;;;;4073945;35;20089;-94
2021/03/20 06:59:52;;;;;;;13.85;2.55;;;;;;;;;;4071527;35;20051;-96
2021/03/20 07:02:45;;;;;;;9.82;2.45;;;;;;;;;;4063065;35;20058;-96
2021/03/20 07:05:39;;;;;;;8.10;2.10;;;;;;;;;;4077022;35;20106;-95
2021/03/20 07:08:34;;;;;;;7.80;2.10;;;;;;;;;;4076992;35;20105;-95
2021/03/20 07:11:29;;;;;;;7.85;2.05;;;;;;;;;;4062551;35;20070;-96
2021/03/20 07:14:41;;;;;;;10.13;2.20;;;;;;;;;;4079183;35;20092;-95
2021/03/20 07:17:52;;;;;;;8.98;2.50;;;;;;;;;;4082013;35;20093;-95
2021/03/20 07:20:54;;;;;;;6.60;1.75;;;;;;;;;;4068323;35;20069;-96
2021/03/20 07:23:53;;;;;;;11.57;2.15;;;;;;;;;;4073222;35;20051;-96
2021/03/20 07:26:53;;;;;;;9.95;2.20;;;;;;;;;;4061354;35;20068;-96
2021/03/20 07:30:20;;;;;;;10.88;2.60;;;;;;;;;;4073504;35;20130;-96
2021/03/20 07:32:59;;;;;;;11.35;2.33;;;;;;;;;;4059870;35;20112;-95
2021/03/20 07:35:39;;;;;;;12.32;2.17;;;;;;;;;;4069401;35;20111;-95
2021/03/20 07:38:26;;;;;;;4.75;1.55;;;;;;;;;;4064662;35;20054;-95
2021/03/20 07:41:10;;;;;;;11.07;2.25;;;;;;;;;;4058503;35;20039;-96
2021/03/20 07:44:02;;;;;;;8.70;2.00;;;;;;;;;;4073619;35;20059;-95
2021/03/20 07:46:36;;;;;;;8.60;1.70;;;;;;;;;;4061808;35;20151;-95
2021/03/20 07:49:18;;;;;;;6.57;1.80;;;;;;;;;;4069418;35;20154;-96
2021/03/20 07:51:55;;;;;;;9.23;1.67;;;;;;;;;;4063510;35;20063;-96
2021/03/20 07:54:37;;;;;;;6.85;1.85;;;;;;;;;;4061686;35;20067;-94
2021/03/20 07:57:18;;;;;;;6.85;2.17;;;;;;;;;;4056243;35;20059;-95
2021/03/20 08:00:18;;;;;;;6.03;1.90;;;;;;;;;;4065763;35;20439;-96
2021/03/20 08:03:34;;;;;;;9.40;2.35;;;;;;;;;;4075051;35;20110;-94
2021/03/20 08:06:38;;;;;;;7.78;2.28;;;;;;;;;;4062102;35;20085;-93
2021/03/20 08:09:30;;;;;;;7.93;2.80;;;;;;;;;;4063760;35;20062;-93
2021/03/20 08:12:19;;;;;;;9.60;4.15;;;;;;;;;;4068322;35;20097;-94
2021/03/20 08:15:04;;;;;;;9.35;4.97;;;;;;;;;;4062629;35;20063;-95
2021/03/20 08:17:34;;;;;;;11.07;4.50;;;;;;;;;;4058838;35;20066;-95
2021/03/20 08:20:04;;;;;;;13.55;3.78;;;;;;;;;;4060398;35;20059;-96
2021/03/20 08:22:56;;;;;;;11.30;5.30;;;;;;;;;;4071330;35;20075;-95
2021/03/20 08:25:48;;;;;;;14.32;5.15;;;;;;;;;;4067200;35;20063;-95
2021/03/20 08:28:36;;;;;;;7.32;3.95;;;;;;;;;;4070236;35;20084;-96
2021/03/20 08:31:24;;;;;;;8.75;3.53;;;;;;;;;;4061963;35;20089;-96
2021/03/20 08:34:19;;;;;;;9.80;2.97;;;;;;;;;;4054705;35;20150;-95
2021/03/20 08:37:12;;;;;;;10.75;1.92;;;;;;;;;;4079804;35;20785;-96
2021/03/20 08:39:56;;;;;;;8.73;4.35;;;;;;;;;;4061159;35;20067;-95
2021/03/20 08:42:58;;;;;;;8.18;2.10;;;;;;;;;;4058860;35;20165;-96
2021/03/20 08:45:55;;;;;;;8.00;1.87;;;;;;;;;;4069380;35;20050;-94
2021/03/20 08:48:41;;;;;;;9.57;2.20;;;;;;;;;;4063671;35;20120;-95
2021/03/20 08:51:33;;;;;;;19.65;2.60;;;;;;;;;;4060749;35;20067;-95
2021/03/20 08:54:05;;;;;;;10.75;2.45;;;;;;;;;;4061547;35;20102;-95
2021/03/20 08:56:59;;;;;;;7.72;2.30;;;;;;;;;;4058725;35;20071;-95
2021/03/20 08:59:48;;;;;;;6.47;3.10;;;;;;;;;;4073334;35;20147;-96
2021/03/20 09:02:35;;;;;;;7.95;2.95;;;;;;;;;;4058968;35;20055;-95
2021/03/20 09:05:18;;;;;;;10.38;2.58;;;;;;;;;;4059870;35;20051;-96
2021/03/20 09:08:03;;;;;;;7.15;3.53;;;;;;;;;;4071522;35;20096;-95
2021/03/20 09:10:41;;;;;;;8.02;1.80;;;;;;;;;;4057949;35;20089;-94
2021/03/20 09:13:45;;;;;;;6.00;2.03;;;;;;;;;;4053868;35;20747;-95
2021/03/20 09:16:22;;;;;;;7.18;1.62;;;;;;;;;;4053143;35;20051;-95
2021/03/20 09:18:56;;;;;;;9.20;1.80;;;;;;;;;;4055576;35;20383;-96
2021/03/20 09:21:25;;;;;;;5.60;1.75;;;;;;;;;;4058762;35;20081;-95
2021/03/20 09:24:00;;;;;;;8.60;2.10;;;;;;;;;;4058368;35;20089;-95
2021/03/20 09:26:46;;;;;;;9.32;1.90;;;;;;;;;;4045861;35;20043;-94
2021/03/20 09:29:35;;;;;;;5.53;1.75;;;;;;;;;;4067048;35;20071;-96
2021/03/20 09:32:10;;;;;;;14.68;2.30;;;;;;;;;;4060329;35;20088;-94
2021/03/20 09:34:53;;;;;;;7.03;2.10;;;;;;;;;;4059099;35;20075;-95
2021/03/20 09:40:47;;;;;;;8.80;1.92;;;;;;;;;;4071272;35;20091;-94
2021/03/20 09:43:32;;;;;;;7.05;1.92;;;;;;;;;;4051427;35;20085;-96
2021/03/20 09:46:25;;;;;;;9.32;2.60;;;;;;;;;;4060525;35;20111;-96
2021/03/20 09:49:05;;;;;;;5.75;4.45;;;;;;;;;;4071827;35;20086;-95
2021/03/20 09:51:59;;;;;;;12.73;9.43;;;;;;;;;;4061324;35;20067;-95
2021/03/20 09:54:39;;;;;;;5.93;4.65;;;;;;;;;;4072858;35;20066;-95
2021/03/20 09:57:27;;;;;;;5.57;1.73;;;;;;;;;;4058200;35;20114;-94
2021/03/20 10:00:15;;;;;;;5.40;1.90;;;;;;;;;;4046667;35;20085;-93
2021/03/20 10:02:44;;;;;;;;;;;;;;;;;;4053250;35;20161;-93
2021/03/20 10:05:23;;;;;;;6.57;1.90;;;;;;;;;;4058794;35;19954;-94
2021/03/20 10:08:01;;;;;;;7.03;2.92;;;;;;;;;;4052426;35;20070;-95
2021/03/20 10:10:30;;;;;;;9.30;5.40;;;;;;;;;;4059525;35;20859;-96
2021/03/20 10:13:01;;;;;;;7.60;6.85;;;;;;;;;;4053913;35;20143;-95
2021/03/20 10:15:34;;;;;;;13.60;9.52;;;;;;;;;;4058713;35;20064;-95
2021/03/20 10:18:03;;;;;;;6.80;5.80;;;;;;;;;;4052729;35;20063;-93
2021/03/20 10:20:47;;;;;;;11.55;9.40;;;;;;;;;;4052025;35;20482;-95
2021/03/20 10:23:27;;;;;;;6.95;6.25;;;;;;;;;;4052737;35;20106;-96
2021/03/20 10:25:59;;;;;;;9.50;8.60;;;;;;;;;;4051222;35;20513;-95
2021/03/20 10:28:40;;;;;;;10.45;6.28;;;;;;;;;;4051592;35;20552;-94
2021/03/20 10:31:08;;;;;;;12.20;11.20;;;;;;;;;;4064614;35;20137;-95
2021/03/20 10:33:41;;;;;;;7.45;5.55;;;;;;;;;;4050773;35;20067;-94
2021/03/20 10:36:18;;;;;;;8.35;4.53;;;;;;;;;;4048521;35;20051;-96
2021/03/20 10:39:21;;;;;;;12.40;6.85;;;;;;;;;;4062642;35;20333;-96
2021/03/20 10:41:53;;;;;;;8.52;6.20;;;;;;;;;;4051604;35;20102;-95
2021/03/20 10:44:24;;;;;;;10.93;9.80;;;;;;;;;;4061136;35;20159;-95
2021/03/20 10:47:22;;;;;;;14.00;9.07;;;;;;;;;;4051763;35;20185;-96
2021/03/20 10:49:58;;;;;;;13.18;11.70;;;;;;;;;;4072822;35;20102;-95
2021/03/20 10:52:36;;;;;;;13.02;9.68;;;;;;;;;;4061834;35;20137;-96
2021/03/20 10:55:15;;;;;;;14.38;12.98;;;;;;;;;;4052513;35;20090;-95
2021/03/20 10:57:46;;;;;;;8.38;3.97;;;;;;;;;;4062743;35;20438;-95
2021/03/20 11:00:20;;;;;;;8.13;5.25;;;;;;;;;;4077136;35;20070;-95
2021/03/20 11:02:49;;;;;;;9.98;6.07;;;;;;;;;;4066676;35;20118;-96
2021/03/20 11:05:21;;;;;;;10.25;4.10;;;;;;;;;;4064128;35;20067;-95
2021/03/20 11:08:00;;;;;;;25.83;11.50;;;;;;;;;;4064766;35;20054;-96
2021/03/20 11:10:39;;;;;;;7.68;6.90;;;;;;;;;;4059396;35;20089;-96
2021/03/20 11:13:10;;;;;;;11.85;9.20;;;;;;;;;;4073353;35;20101;-95
2021/03/20 11:15:44;;;;;;;8.23;3.25;;;;;;;;;;4069294;35;20110;-95
2021/03/20 11:18:35;;;;;;;10.73;6.90;;;;;;;;;;4069441;35;20101;-96
2021/03/20 11:21:18;;;;;;;12.32;5.93;;;;;;;;;;4045058;35;20106;-96
2021/03/20 11:23:53;;;;;;;8.52;2.80;;;;;;;;;;4042115;35;20074;-96
2021/03/20 11:26:24;;;;;;;8.68;3.00;;;;;;;;;;4064459;35;20209;-96
2021/03/20 11:28:53;;;;;;;8.50;2.78;;;;;;;;;;4057965;35;20112;-96
2021/03/20 11:31:28;;;;;;;14.18;3.53;;;;;;;;;;4066974;35;20085;-96
2021/03/20 11:34:13;;;;;;;9.52;4.43;;;;;;;;;;4058527;35;20073;-96
2021/03/20 11:39:42;;;;;;;9.55;5.95;;;;;;;;;;4063698;35;20055;-95
2021/03/20 11:42:38;;;;;;;14.07;8.68;;;;;;;;;;4060521;35;20070;-95
2021/03/20 11:49:19;;;;;;;10.40;5.35;;;;;;;;;;4069128;35;20071;-95
2021/03/20 11:51:57;;;;;;;18.65;6.03;;;;;;;;;;4072961;35;20099;-96
2021/03/20 11:54:41;;;;;;;6.93;3.55;;;;;;;;;;4061798;35;20092;-96
2021/03/20 11:57:58;;;;;;;12.35;6.82;;;;;;;;;;4062276;35;20134;-96
2021/03/20 12:01:06;;;;;;;12.05;4.95;;;;;;;;;;4068831;35;20474;-96
2021/03/20 12:04:18;;;;;;;11.15;4.70;;;;;;;;;;4074328;35;20386;-96
2021/03/20 12:07:12;;;;;;;6.03;4.15;;;;;;;;;;4060218;35;20086;-96
2021/03/20 12:10:29;;;;;;;12.82;5.80;;;;;;;;;;4053246;35;20051;-96
2021/03/20 12:13:43;;;;;;;17.70;5.57;;;;;;;;;;4065153;35;20082;-95
2021/03/20 12:16:33;;;;;;;9.60;3.70;;;;;;;;;;4065723;35;20106;-96
2021/03/20 12:19:16;;;;;;;8.55;3.72;;;;;;;;;;4075596;35;20146;-96
2021/03/20 12:22:00;;;;;;;9.43;4.45;;;;;;;;;;4073869;35;20086;-95
2021/03/20 12:25:45;;;;;;;9.73;3.92;;;;;;;;;;4056731;35;20077;-96
2021/03/20 12:28:41;;;;;;;9.55;3.05;;;;;;;;;;4059214;35;20047;-96
2021/03/20 12:31:16;;;;;;;7.47;2.78;;;;;;;;;;4065712;35;20509;-96
2021/03/20 12:34:08;;;;;;;11.25;3.08;;;;;;;;;;4079203;35;20472;-96
2021/03/20 12:37:22;;;;;;;11.02;4.47;;;;;;;;;;4067662;35;20102;-95
2021/03/20 12:43:01;;;;;;;11.48;3.20;;;;;;;;;;4089416;34;20043;-84
2021/03/20 12:45:30;;;;;;;5.10;2.25;;;;;;;;;;4088069;35;20049;-84
2021/03/20 12:48:16;;;;;;;11.43;3.60;;;;;;;;;;4086997;35;20168;-84
2021/03/20 12:50:46;;;;;;;11.93;4.07;;;;;;;;;;4090532;35;20054;-84
2021/03/20 12:53:14;;;;;;;11.25;3.12;;;;;;;;;;4089009;35;20110;-84
2021/03/20 12:55:42;;;;;;;12.35;3.05;;;;;;;;;;4090741;35;20509;-84
2021/03/20 12:58:10;;;;;;;7.55;2.80;;;;;;;;;;4094249;35;20894;-84
2021/03/20 13:00:44;;;;;;;;;;;;;;;;;;4089651;35;20051;-84
2021/03/20 13:03:13;;;;;;;7.28;2.40;;;;;;;;;;4084754;35;20051;-84
2021/03/20 13:05:45;;;;;;;12.57;2.95;;;;;;;;;;4090224;35;20164;-83
2021/03/20 13:08:14;;;;;;;10.70;2.70;;;;;;;;;;4093246;35;20166;-83
2021/03/20 13:10:42;;;;;;;9.25;2.67;;;;;;;;;;4091411;35;20193;-84
2021/03/20 13:13:10;;;;;;;8.45;2.53;;;;;;;;;;4092315;35;20070;-84
2021/03/20 13:15:39;;;;;;;9.38;2.50;;;;;;;;;;4092270;35;20419;-83
2021/03/20 13:18:07;;;;;;;10.40;2.95;;;;;;;;;;4090109;35;20722;-84
2021/03/20 13:20:44;;;;;;;14.80;2.80;;;;;;;;;;4090388;35;20067;-83
2021/03/20 13:23:15;;;;;;;9.50;2.70;;;;;;;;;;4089752;35;20124;-83
2021/03/20 13:25:43;;;;;;;14.27;3.00;;;;;;;;;;4088460;35;20050;-83
2021/03/20 13:28:12;;;;;;;14.38;2.97;;;;;;;;;;4091283;35;20149;-84
2021/03/20 13:30:43;;;;;;;10.80;2.28;;;;;;;;;;4089933;35;20105;-84
2021/03/20 13:33:12;;;;;;;12.60;2.80;;;;;;;;;;4091872;35;20129;-85
2021/03/20 13:35:42;;;;;;;10.63;2.35;;;;;;;;;;4091154;35;20069;-85
2021/03/20 13:38:10;;;;;;;7.43;2.55;;;;;;;;;;4090260;35;20070;-84
2021/03/20 13:40:42;;;;;;;12.82;2.37;;;;;;;;;;4090261;35;20070;-84
2021/03/20 13:43:11;;;;;;;10.43;2.40;;;;;;;;;;4090103;35;20081;-84
2021/03/20 13:45:39;;;;;;;18.40;3.75;;;;;;;;;;4089243;35;20078;-83
2021/03/20 13:48:08;;;;;;;9.90;2.80;;;;;;;;;;4089576;35;20061;-84
2021/03/20 13:50:38;;;;;;;12.15;3.28;;;;;;;;;;4087571;35;20084;-84
2021/03/20 13:53:10;;;;;;;7.65;2.03;;;;;;;;;;4088463;35;20062;-84
2021/03/20 13:55:38;;;;;;;8.05;2.70;;;;;;;;;;4087383;35;20066;-84
2021/03/20 13:58:06;;;;;;;32.50;4.62;;;;;;;;;;4087957;35;20114;-83
2021/03/20 14:00:34;;;;;;;6.10;2.10;;;;;;;;;;4089170;35;20064;-84
2021/03/20 14:03:03;;;;;;;7.03;2.20;;;;;;;;;;4098561;35;20128;-83
2021/03/20 14:05:31;;;;;;;6.78;2.05;;;;;;;;;;4088210;35;20133;-84
2021/03/20 14:07:59;;;;;;;52.75;4.80;;;;;;;;;;4088427;35;20463;-83
2021/03/20 14:10:32;;;;;;;9.68;3.00;;;;;;;;;;4087769;35;20058;-83
2021/03/20 14:13:00;;;;;;;9.27;2.75;;;;;;;;;;4095124;35;20058;-84
2021/03/20 14:15:28;;;;;;;9.85;2.65;;;;;;;;;;4087334;35;20504;-84
2021/03/20 14:17:58;;;;;;;12.32;2.90;;;;;;;;;;4088894;35;20149;-84
2021/03/20 14:20:29;;;;;;;15.55;2.80;;;;;;;;;;4098602;34;20066;-84
2021/03/20 14:22:58;;;;;;;8.77;2.35;;;;;;;;;;4089358;35;20116;-84
2021/03/20 14:25:27;;;;;;;27.62;4.12;;;;;;;;;;4088325;35;20100;-84
2021/03/20 14:27:55;;;;;;;10.40;2.15;;;;;;;;;;4088679;35;20065;-85
2021/03/20 14:30:24;;;;;;;10.55;2.70;;;;;;;;;;4090146;34;20126;-83
2021/03/20 14:33:13;;;;;;;10.40;2.42;;;;;;;;;;4084475;35;20097;-84
2021/03/20 14:35:42;;;;;;;10.13;2.25;;;;;;;;;;4087444;35;20493;-84
2021/03/20 14:38:10;;;;;;;8.05;2.37;;;;;;;;;;4090152;35;20073;-84
2021/03/20 14:40:39;;;;;;;10.20;2.60;;;;;;;;;;4088870;34;20062;-84
2021/03/20 14:43:14;;;;;;;8.13;2.22;;;;;;;;;;4088118;35;20502;-83
2021/03/20 14:45:43;;;;;;;7.97;2.20;;;;;;;;;;4084021;35;20113;-84
2021/03/20 14:48:28;;;;;;;13.60;2.62;;;;;;;;;;4086525;35;20761;-83
2021/03/20 14:50:57;;;;;;;12.30;3.00;;;;;;;;;;4088759;35;20132;-84
2021/03/20 14:53:25;;;;;;;8.65;2.42;;;;;;;;;;4083858;35;20051;-83
2021/03/20 14:55:53;;;;;;;11.00;2.62;;;;;;;;;;4086837;35;20156;-83
2021/03/20 14:58:21;;;;;;;7.65;2.20;;;;;;;;;;4091875;35;20147;-83
2021/03/20 15:00:52;;;;;;;9.45;2.20;;;;;;;;;;4084791;35;20126;-84
2021/03/20 15:03:21;;;;;;;11.77;2.45;;;;;;;;;;4087797;35;20556;-84
2021/03/20 15:05:50;;;;;;;9.13;2.33;;;;;;;;;;4088041;35;20084;-83
2021/03/20 15:08:19;;;;;;;7.80;2.40;;;;;;;;;;4090904;35;20081;-83
2021/03/20 15:10:50;;;;;;;10.88;2.75;;;;;;;;;;4091966;34;20276;-83
2021/03/20 15:13:19;;;;;;;7.60;2.15;;;;;;;;;;4085712;35;20503;-84
2021/03/20 15:15:48;;;;;;;11.07;2.60;;;;;;;;;;4086795;35;20199;-83
2021/03/20 15:18:27;;;;;;;18.17;3.15;;;;;;;;;;4085794;35;20099;-85
2021/03/20 15:20:56;;;;;;;9.50;2.53;;;;;;;;;;4089875;34;20063;-85
2021/03/20 15:23:26;;;;;;;11.60;2.53;;;;;;;;;;4088134;35;20467;-84
2021/03/20 15:25:55;;;;;;;10.32;3.03;;;;;;;;;;4088526;35;20115;-84
2021/03/20 15:28:26;;;;;;;11.75;2.97;;;;;;;;;;4092325;35;20178;-84
2021/03/20 15:30:55;;;;;;;9.95;2.50;;;;;;;;;;4088301;35;20537;-83
2021/03/20 15:33:25;;;;;;;8.43;2.30;;;;;;;;;;4088882;35;20058;-84
2021/03/20 15:35:53;;;;;;;8.85;2.58;;;;;;;;;;4086011;35;20434;-84
2021/03/20 15:38:22;;;;;;;9.68;2.62;;;;;;;;;;4088496;35;20101;-83
2021/03/20 15:40:52;;;;;;;14.27;2.62;;;;;;;;;;4088983;35;20050;-85
2021/03/20 15:43:22;;;;;;;10.60;2.53;;;;;;;;;;4090226;35;20463;-84
2021/03/20 15:45:51;;;;;;;9.70;2.40;;;;;;;;;;4087609;35;20066;-84
2021/03/20 15:48:20;;;;;;;10.68;2.22;;;;;;;;;;4089380;35;20099;-84
2021/03/20 15:50:53;;;;;;;10.00;2.90;;;;;;;;;;4086996;35;20471;-84
2021/03/20 15:53:21;;;;;;;9.70;2.30;;;;;;;;;;4087393;35;20117;-84
2021/03/20 15:55:51;;;;;;;13.13;2.62;;;;;;;;;;4088002;35;20085;-85
2021/03/20 15:58:27;;;;;;;9.73;2.30;;;;;;;;;;4095155;35;20065;-83
2021/03/20 16:00:57;;;;;;;8.65;2.12;;;;;;;;;;4095394;35;20070;-84
2021/03/20 16:03:26;;;;;;;14.87;2.37;;;;;;;;;;4078164;35;20066;-85
2021/03/20 16:05:55;;;;;;;8.70;2.25;;;;;;;;;;4089100;35;20054;-83
2021/03/20 16:08:25;;;;;;;9.15;2.50;;;;;;;;;;4091710;35;20133;-84
2021/03/20 16:10:54;;;;;;;12.75;2.40;;;;;;;;;;4090807;35;20058;-84